sensor_id;sensor_type;location;lat;lon;timestamp;pressure;altitude;pressure_sealevel;temperature;humidity
36354;BME280;22383;51.114;13.666;2023-06-10T00:00:44;69182.31;;;18.04;100.00
36354;BME280;22383;51.114;13.666;2023-06-10T00:03:12;69179.28;;;17.99;100.00
36354;BME280;22383;51.114;13.666;2023-06-10T00:05:41;69188.03;;;18.09;100.00
36354;BME280;22383;51.114;13.666;2023-06-10T00:08:08;69187.84;;;18.07;100.00
36354;BME280;22383;51.114;13.666;2023-06-10T00:10:38;69177.19;;;18.00;100.00
36354;BME280;22383;51.114;13.666;2023-06-10T00:13:05;69169.19;;;17.92;100.00
36354;BME280;22383;51.114;13.666;2023-06-10T00:15:35;69158.53;;;17.85;100.00
36354;BME280;22383;51.114;13.666;2023-06-10T00:18:03;69167.69;;;17.86;100.00
36354;BME280;22383;51.114;13.666;2023-06-10T00:20:31;69154.34;;;17.79;100.00
36354;BME280;22383;51.114;13.666;2023-06-10T00:23:00;69148.47;;;17.71;100.00
36354;BME280;22383;51.114;13.666;2023-06-10T00:25:28;69142.38;;;17.68;100.00
36354;BME280;22383;51.114;13.666;2023-06-10T00:27:56;69138.78;;;17.63;100.00
36354;BME280;22383;51.114;13.666;2023-06-10T00:30:23;69144.31;;;17.65;100.00
36354;BME280;22383;51.114;13.666;2023-06-10T00:32:51;69134.81;;;17.59;100.00
36354;BME280;22383;51.114;13.666;2023-06-10T00:35:19;69132.69;;;17.60;100.00
36354;BME280;22383;51.114;13.666;2023-06-10T00:37:46;69130.41;;;17.57;100.00
36354;BME280;22383;51.114;13.666;2023-06-10T00:40:15;69120.91;;;17.51;100.00
36354;BME280;22383;51.114;13.666;2023-06-10T00:42:42;69122.44;;;17.50;100.00
36354;BME280;22383;51.114;13.666;2023-06-10T00:45:10;69117.53;;;17.41;100.00
36354;BME280;22383;51.114;13.666;2023-06-10T00:47:39;69103.06;;;17.33;100.00
36354;BME280;22383;51.114;13.666;2023-06-10T00:50:07;69098.34;;;17.26;100.00
36354;BME280;22383;51.114;13.666;2023-06-10T00:52:35;69105.19;;;17.32;100.00
36354;BME280;22383;51.114;13.666;2023-06-10T00:55:03;69101.19;;;17.29;100.00
36354;BME280;22383;51.114;13.666;2023-06-10T00:57:33;69098.53;;;17.29;100.00
36354;BME280;22383;51.114;13.666;2023-06-10T01:00:01;69092.81;;;17.24;100.00
36354;BME280;22383;51.114;13.666;2023-06-10T01:02:29;69085.22;;;17.14;100.00
36354;BME280;22383;51.114;13.666;2023-06-10T01:04:59;69090.91;;;17.19;100.00
36354;BME280;22383;51.114;13.666;2023-06-10T01:07:38;69077.84;;;17.08;100.00
36354;BME280;22383;51.114;13.666;2023-06-10T01:10:38;69071.34;;;17.07;100.00
36354;BME280;22383;51.114;13.666;2023-06-10T01:13:11;69066.84;;;16.95;100.00
36354;BME280;22383;51.114;13.666;2023-06-10T01:15:39;69067.41;;;16.96;100.00
36354;BME280;22383;51.114;13.666;2023-06-10T01:18:08;69055.78;;;16.90;100.00
36354;BME280;22383;51.114;13.666;2023-06-10T01:20:38;69041.16;;;16.72;100.00
36354;BME280;22383;51.114;13.666;2023-06-10T01:23:07;69032.97;;;16.70;100.00
36354;BME280;22383;51.114;13.666;2023-06-10T01:25:41;69036.06;;;16.68;100.00
36354;BME280;22383;51.114;13.666;2023-06-10T01:28:22;69033.38;;;16.68;100.00
36354;BME280;22383;51.114;13.666;2023-06-10T01:31:20;69051.81;;;16.79;100.00
36354;BME280;22383;51.114;13.666;2023-06-10T01:33:52;69044.59;;;16.75;100.00
36354;BME280;22383;51.114;13.666;2023-06-10T01:36:23;69035.09;;;16.69;100.00
36354;BME280;22383;51.114;13.666;2023-06-10T01:38:52;69025.00;;;16.62;100.00
36354;BME280;22383;51.114;13.666;2023-06-10T01:41:21;69023.09;;;16.58;100.00
36354;BME280;22383;51.114;13.666;2023-06-10T01:43:52;69022.72;;;16.60;100.00
36354;BME280;22383;51.114;13.666;2023-06-10T01:46:21;68997.09;;;16.37;100.00
36354;BME280;22383;51.114;13.666;2023-06-10T01:48:50;68996.19;;;16.32;100.00
36354;BME280;22383;51.114;13.666;2023-06-10T01:51:17;68962.38;;;16.06;100.00
36354;BME280;22383;51.114;13.666;2023-06-10T01:53:45;68942.44;;;15.88;100.00
36354;BME280;22383;51.114;13.666;2023-06-10T01:56:13;68920.63;;;15.66;100.00
36354;BME280;22383;51.114;13.666;2023-06-10T01:58:46;68912.47;;;15.56;100.00
36354;BME280;22383;51.114;13.666;2023-06-10T02:01:14;68906.00;;;15.55;100.00
36354;BME280;22383;51.114;13.666;2023-06-10T02:03:41;68908.31;;;15.50;100.00
36354;BME280;22383;51.114;13.666;2023-06-10T02:06:09;68901.09;;;15.46;100.00
36354;BME280;22383;51.114;13.666;2023-06-10T02:08:36;68897.84;;;15.45;100.00
36354;BME280;22383;51.114;13.666;2023-06-10T02:11:04;68903.16;;;15.53;100.00
36354;BME280;22383;51.114;13.666;2023-06-10T02:13:38;68895.75;;;15.46;100.00
36354;BME280;22383;51.114;13.666;2023-06-10T02:16:06;68902.22;;;15.47;100.00
36354;BME280;22383;51.114;13.666;2023-06-10T02:18:36;68886.09;;;15.37;100.00
36354;BME280;22383;51.114;13.666;2023-06-10T02:21:04;68885.53;;;15.37;100.00
36354;BME280;22383;51.114;13.666;2023-06-10T02:23:31;68888.56;;;15.35;100.00
36354;BME280;22383;51.114;13.666;2023-06-10T02:25:59;68869.78;;;15.18;100.00
36354;BME280;22383;51.114;13.666;2023-06-10T02:28:27;68848.38;;;15.01;100.00
36354;BME280;22383;51.114;13.666;2023-06-10T02:30:57;68837.56;;;14.91;100.00
36354;BME280;22383;51.114;13.666;2023-06-10T02:33:26;68832.25;;;14.84;100.00
36354;BME280;22383;51.114;13.666;2023-06-10T02:35:55;68822.19;;;14.77;100.00
36354;BME280;22383;51.114;13.666;2023-06-10T02:38:24;68817.66;;;14.73;100.00
36354;BME280;22383;51.114;13.666;2023-06-10T02:40:53;68833.38;;;14.85;100.00
36354;BME280;22383;51.114;13.666;2023-06-10T02:43:22;68836.81;;;14.88;100.00
36354;BME280;22383;51.114;13.666;2023-06-10T02:45:51;68840.38;;;14.93;100.00
36354;BME280;22383;51.114;13.666;2023-06-10T02:48:18;68855.19;;;15.07;100.00
36354;BME280;22383;51.114;13.666;2023-06-10T02:50:46;68864.69;;;15.13;100.00
36354;BME280;22383;51.114;13.666;2023-06-10T02:53:19;68874.34;;;15.22;100.00
36354;BME280;22383;51.114;13.666;2023-06-10T02:55:53;68873.78;;;15.21;100.00
36354;BME280;22383;51.114;13.666;2023-06-10T02:58:21;68869.97;;;15.20;100.00
36354;BME280;22383;51.114;13.666;2023-06-10T03:00:50;68869.03;;;15.22;100.00
36354;BME280;22383;51.114;13.666;2023-06-10T03:03:18;68873.56;;;15.26;100.00
36354;BME280;22383;51.114;13.666;2023-06-10T03:05:55;68880.03;;;15.27;100.00
36354;BME280;22383;51.114;13.666;2023-06-10T03:08:24;68885.34;;;15.34;100.00
36354;BME280;22383;51.114;13.666;2023-06-10T03:10:53;68889.69;;;15.36;100.00
36354;BME280;22383;51.114;13.666;2023-06-10T03:13:21;68887.63;;;15.36;100.00
36354;BME280;22383;51.114;13.666;2023-06-10T03:15:49;68888.75;;;15.37;100.00
36354;BME280;22383;51.114;13.666;2023-06-10T03:18:20;68886.66;;;15.38;100.00
36354;BME280;22383;51.114;13.666;2023-06-10T03:20:48;68886.66;;;15.38;100.00
36354;BME280;22383;51.114;13.666;2023-06-10T03:23:16;68877.00;;;15.29;100.00
36354;BME280;22383;51.114;13.666;2023-06-10T03:25:44;68879.06;;;15.28;100.00
36354;BME280;22383;51.114;13.666;2023-06-10T03:28:16;68887.63;;;15.36;100.00
36354;BME280;22383;51.114;13.666;2023-06-10T03:30:43;68890.81;;;15.44;100.00
36354;BME280;22383;51.114;13.666;2023-06-10T03:33:11;68908.50;;;15.53;100.00
36354;BME280;22383;51.114;13.666;2023-06-10T03:35:40;68907.69;;;15.57;100.00
36354;BME280;22383;51.114;13.666;2023-06-10T03:38:08;68896.34;;;15.46;100.00
36354;BME280;22383;51.114;13.666;2023-06-10T03:40:36;68899.56;;;15.47;100.00
36354;BME280;22383;51.114;13.666;2023-06-10T03:43:04;68909.06;;;15.53;100.00
36354;BME280;22383;51.114;13.666;2023-06-10T03:45:32;68909.59;;;15.61;100.00
36354;BME280;22383;51.114;13.666;2023-06-10T03:48:01;68920.03;;;15.65;100.00
36354;BME280;22383;51.114;13.666;2023-06-10T03:50:42;68920.78;;;15.68;100.00
36354;BME280;22383;51.114;13.666;2023-06-10T03:53:10;68924.22;;;15.72;100.00
36354;BME280;22383;51.114;13.666;2023-06-10T03:55:40;68925.94;;;15.73;100.00
36354;BME280;22383;51.114;13.666;2023-06-10T03:58:08;68936.97;;;15.78;100.00
36354;BME280;22383;51.114;13.666;2023-06-10T04:00:36;68940.97;;;15.82;100.00
36354;BME280;22383;51.114;13.666;2023-06-10T04:03:08;68949.31;;;15.87;100.00
36354;BME280;22383;51.114;13.666;2023-06-10T04:05:41;68948.94;;;15.89;100.00
36354;BME280;22383;51.114;13.666;2023-06-10T04:08:09;68945.88;;;15.91;100.00
36354;BME280;22383;51.114;13.666;2023-06-10T04:10:37;68949.84;;;15.95;100.00
36354;BME280;22383;51.114;13.666;2023-06-10T04:13:04;68958.59;;;15.98;100.00
36354;BME280;22383;51.114;13.666;2023-06-10T04:15:38;68957.81;;;16.02;100.00
36354;BME280;22383;51.114;13.666;2023-06-10T04:18:09;68973.97;;;16.12;100.00
36354;BME280;22383;51.114;13.666;2023-06-10T04:20:37;68973.19;;;16.16;100.00
36354;BME280;22383;51.114;13.666;2023-06-10T04:23:05;68976.03;;;16.18;100.00
36354;BME280;22383;51.114;13.666;2023-06-10T04:25:33;68983.44;;;16.25;100.00
36354;BME280;22383;51.114;13.666;2023-06-10T04:28:01;69001.31;;;16.36;100.00
36354;BME280;22383;51.114;13.666;2023-06-10T04:30:29;69007.91;;;16.47;100.00
36354;BME280;22383;51.114;13.666;2023-06-10T04:32:58;69019.88;;;16.58;100.00
36354;BME280;22383;51.114;13.666;2023-06-10T04:35:27;69039.06;;;16.73;100.00
36354;BME280;22383;51.114;13.666;2023-06-10T04:37:57;69052.19;;;16.85;100.00
36354;BME280;22383;51.114;13.666;2023-06-10T04:40:25;69069.84;;;17.00;100.00
36354;BME280;22383;51.114;13.666;2023-06-10T04:42:53;69087.13;;;17.18;100.00
36354;BME280;22383;51.114;13.666;2023-06-10T04:45:21;69107.63;;;17.37;100.00
36354;BME280;22383;51.114;13.666;2023-06-10T04:47:51;69130.03;;;17.60;100.00
36354;BME280;22383;51.114;13.666;2023-06-10T04:50:19;69154.75;;;17.77;100.00
36354;BME280;22383;51.114;13.666;2023-06-10T04:52:48;69178.50;;;18.03;100.00
36354;BME280;22383;51.114;13.666;2023-06-10T04:55:16;69202.66;;;18.20;100.00
36354;BME280;22383;51.114;13.666;2023-06-10T04:57:44;69217.66;;;18.36;100.00
36354;BME280;22383;51.114;13.666;2023-06-10T05:00:12;69248.47;;;18.64;100.00
36354;BME280;22383;51.114;13.666;2023-06-10T05:02:39;69277.56;;;18.90;100.00
36354;BME280;22383;51.114;13.666;2023-06-10T05:05:07;69302.09;;;19.12;100.00
36354;BME280;22383;51.114;13.666;2023-06-10T05:07:38;69344.88;;;19.51;100.00
36354;BME280;22383;51.114;13.666;2023-06-10T05:10:06;69359.16;;;19.63;100.00
36354;BME280;22383;51.114;13.666;2023-06-10T05:12:34;69341.06;;;19.50;100.00
36354;BME280;22383;51.114;13.666;2023-06-10T05:15:01;69326.44;;;19.56;100.00
36354;BME280;22383;51.114;13.666;2023-06-10T05:17:29;69323.19;;;19.31;100.00
36354;BME280;22383;51.114;13.666;2023-06-10T05:19:57;69325.88;;;19.31;100.00
36354;BME280;22383;51.114;13.666;2023-06-10T05:22:24;69345.84;;;19.49;100.00
36354;BME280;22383;51.114;13.666;2023-06-10T05:24:52;69388.13;;;19.87;100.00
36354;BME280;22383;51.114;13.666;2023-06-10T05:27:19;69401.81;;;19.99;100.00
36354;BME280;22383;51.114;13.666;2023-06-10T05:29:47;69405.25;;;20.02;100.00
36354;BME280;22383;51.114;13.666;2023-06-10T05:32:15;69407.50;;;20.29;100.00
36354;BME280;22383;51.114;13.666;2023-06-10T05:34:42;69429.06;;;20.21;100.00
36354;BME280;22383;51.114;13.666;2023-06-10T05:37:10;69434.69;;;20.34;100.00
36354;BME280;22383;51.114;13.666;2023-06-10T05:39:37;69464.06;;;20.55;100.00
36354;BME280;22383;51.114;13.666;2023-06-10T05:42:06;69464.22;;;20.58;100.00
36354;BME280;22383;51.114;13.666;2023-06-10T05:44:34;69470.31;;;20.85;100.00
36354;BME280;22383;51.114;13.666;2023-06-10T05:47:02;69513.19;;;21.00;100.00
36354;BME280;22383;51.114;13.666;2023-06-10T05:49:30;69542.50;;;21.28;100.00
36354;BME280;22383;51.114;13.666;2023-06-10T05:51:57;69547.47;;;21.30;100.00
36354;BME280;22383;51.114;13.666;2023-06-10T05:54:26;69557.91;;;21.42;100.00
36354;BME280;22383;51.114;13.666;2023-06-10T05:56:56;69579.66;;;21.62;100.00
36354;BME280;22383;51.114;13.666;2023-06-10T05:59:23;69541.34;;;21.27;100.00
36354;BME280;22383;51.114;13.666;2023-06-10T06:01:51;69569.78;;;21.50;100.00
36354;BME280;22383;51.114;13.666;2023-06-10T06:04:18;69592.09;;;21.70;100.00
36354;BME280;22383;51.114;13.666;2023-06-10T06:06:46;69569.97;;;21.53;100.00
36354;BME280;22383;51.114;13.666;2023-06-10T06:09:13;69554.75;;;21.34;100.00
36354;BME280;22383;51.114;13.666;2023-06-10T06:11:41;69586.38;;;21.65;100.00
36354;BME280;22383;51.114;13.666;2023-06-10T06:14:08;69611.09;;;21.90;100.00
36354;BME280;22383;51.114;13.666;2023-06-10T06:16:36;69623.66;;;22.01;100.00
36354;BME280;22383;51.114;13.666;2023-06-10T06:19:03;69604.09;;;21.81;100.00
36354;BME280;22383;51.114;13.666;2023-06-10T06:21:31;69615.34;;;21.89;100.00
36354;BME280;22383;51.114;13.666;2023-06-10T06:23:59;69607.50;;;21.84;100.00
36354;BME280;22383;51.114;13.666;2023-06-10T06:26:27;69531.66;;;21.19;100.00
36354;BME280;22383;51.114;13.666;2023-06-10T06:28:54;69463.88;;;20.53;100.00
36354;BME280;22383;51.114;13.666;2023-06-10T06:31:22;69476.81;;;20.69;100.00
36354;BME280;22383;51.114;13.666;2023-06-10T06:33:49;69501.19;;;20.89;100.00
36354;BME280;22383;51.114;13.666;2023-06-10T06:36:17;69548.78;;;21.34;100.00
36354;BME280;22383;51.114;13.666;2023-06-10T06:38:44;69600.41;;;21.83;100.00
36354;BME280;22383;51.114;13.666;2023-06-10T06:41:12;69633.38;;;22.10;100.00
36354;BME280;22383;51.114;13.666;2023-06-10T06:43:41;69674.00;;;22.46;100.00
36354;BME280;22383;51.114;13.666;2023-06-10T06:46:30;69687.16;;;22.58;100.00
36354;BME280;22383;51.114;13.666;2023-06-10T06:48:57;69686.00;;;22.57;100.00
36354;BME280;22383;51.114;13.666;2023-06-10T06:51:25;69726.22;;;22.96;100.00
36354;BME280;22383;51.114;13.666;2023-06-10T06:53:53;69750.66;;;23.15;100.00
36354;BME280;22383;51.114;13.666;2023-06-10T06:56:24;69704.47;;;22.76;100.00
36354;BME280;22383;51.114;13.666;2023-06-10T06:58:52;69697.03;;;22.70;100.00
36354;BME280;22383;51.114;13.666;2023-06-10T07:01:23;69634.69;;;22.14;100.00
36354;BME280;22383;51.114;13.666;2023-06-10T07:03:53;69609.22;;;21.86;100.00
36354;BME280;22383;51.114;13.666;2023-06-10T07:06:20;69593.53;;;21.77;100.00
36354;BME280;22383;51.114;13.666;2023-06-10T07:08:49;69590.94;;;21.69;100.00
36354;BME280;22383;51.114;13.666;2023-06-10T07:11:17;69588.25;;;21.69;100.00
36354;BME280;22383;51.114;13.666;2023-06-10T07:13:45;69588.38;;;21.72;100.00
36354;BME280;22383;51.114;13.666;2023-06-10T07:16:13;69540.00;;;21.48;100.00
36354;BME280;22383;51.114;13.666;2023-06-10T07:18:41;69557.34;;;21.42;100.00
36354;BME280;22383;51.114;13.666;2023-06-10T07:21:08;69527.66;;;21.15;100.00
36354;BME280;22383;51.114;13.666;2023-06-10T07:23:36;69504.22;;;20.94;100.00
36354;BME280;22383;51.114;13.666;2023-06-10T07:26:07;69500.78;;;20.91;100.00
36354;BME280;22383;51.114;13.666;2023-06-10T07:28:40;69480.81;;;20.73;100.00
36354;BME280;22383;51.114;13.666;2023-06-10T07:31:08;69477.22;;;20.67;100.00
36354;BME280;22383;51.114;13.666;2023-06-10T07:33:35;69483.09;;;20.75;100.00
36354;BME280;22383;51.114;13.666;2023-06-10T07:36:04;69492.97;;;20.86;100.00
36354;BME280;22383;51.114;13.666;2023-06-10T07:38:32;69513.38;;;21.02;100.00
36354;BME280;22383;51.114;13.666;2023-06-10T07:40:59;69524.63;;;21.10;100.00
36354;BME280;22383;51.114;13.666;2023-06-10T07:43:27;69585.53;;;21.69;100.00
36354;BME280;22383;51.114;13.666;2023-06-10T07:45:54;69640.59;;;22.38;100.00
36354;BME280;22383;51.114;13.666;2023-06-10T07:48:22;69721.06;;;22.91;100.00
36354;BME280;22383;51.114;13.666;2023-06-10T07:50:49;69739.81;;;23.06;100.00
36354;BME280;22383;51.114;13.666;2023-06-10T07:53:17;69723.19;;;22.91;100.00
36354;BME280;22383;51.114;13.666;2023-06-10T07:55:46;69732.09;;;23.20;100.00
36354;BME280;22383;51.114;13.666;2023-06-10T07:58:13;69756.56;;;23.23;100.00
36354;BME280;22383;51.114;13.666;2023-06-10T08:00:41;69734.63;;;23.01;100.00
36354;BME280;22383;51.114;13.666;2023-06-10T08:03:08;69754.09;;;23.18;100.00
36354;BME280;22383;51.114;13.666;2023-06-10T08:05:36;69753.25;;;23.39;100.00
36354;BME280;22383;51.114;13.666;2023-06-10T08:08:04;69792.44;;;23.53;100.00
36354;BME280;22383;51.114;13.666;2023-06-10T08:10:31;69830.78;;;23.87;100.00
36354;BME280;22383;51.114;13.666;2023-06-10T08:12:59;69840.69;;;23.99;100.00
36354;BME280;22383;51.114;13.666;2023-06-10T08:15:26;69857.84;;;24.14;100.00
36354;BME280;22383;51.114;13.666;2023-06-10T08:17:53;69855.56;;;24.12;100.00
36354;BME280;22383;51.114;13.666;2023-06-10T08:20:21;69858.25;;;24.12;100.00
36354;BME280;22383;51.114;13.666;2023-06-10T08:22:49;69842.81;;;23.98;100.00
36354;BME280;22383;51.114;13.666;2023-06-10T08:25:16;69843.41;;;23.99;100.00
36354;BME280;22383;51.114;13.666;2023-06-10T08:27:44;69870.28;;;24.23;100.00
36354;BME280;22383;51.114;13.666;2023-06-10T08:30:12;69850.44;;;24.07;100.00
36354;BME280;22383;51.114;13.666;2023-06-10T08:32:43;69848.69;;;24.06;100.00
36354;BME280;22383;51.114;13.666;2023-06-10T08:35:12;69877.72;;;24.29;100.00
36354;BME280;22383;51.114;13.666;2023-06-10T08:37:41;69906.38;;;24.55;100.00
36354;BME280;22383;51.114;13.666;2023-06-10T08:40:16;69909.81;;;24.58;100.00
36354;BME280;22383;51.114;13.666;2023-06-10T08:43:06;69885.59;;;24.34;100.00
36354;BME280;22383;51.114;13.666;2023-06-10T08:45:36;69822.38;;;23.82;100.00
36354;BME280;22383;51.114;13.666;2023-06-10T08:48:04;69843.78;;;23.96;100.00
36354;BME280;22383;51.114;13.666;2023-06-10T08:50:39;69860.72;;;24.16;100.00
36354;BME280;22383;51.114;13.666;2023-06-10T08:53:08;69877.91;;;24.32;100.00
36354;BME280;22383;51.114;13.666;2023-06-10T08:55:38;69881.16;;;24.32;100.00
36354;BME280;22383;51.114;13.666;2023-06-10T08:58:09;69922.00;;;24.71;100.00
36354;BME280;22383;51.114;13.666;2023-06-10T09:00:37;69907.69;;;24.59;100.00
36354;BME280;22383;51.114;13.666;2023-06-10T09:03:04;69926.41;;;24.73;100.00
36354;BME280;22383;51.114;13.666;2023-06-10T09:05:37;69956.78;;;25.00;100.00
36354;BME280;22383;51.114;13.666;2023-06-10T09:08:06;69976.97;;;25.21;100.00
36354;BME280;22383;51.114;13.666;2023-06-10T09:10:37;69982.25;;;25.45;100.00
36354;BME280;22383;51.114;13.666;2023-06-10T09:13:05;70024.97;;;25.61;100.00
36354;BME280;22383;51.114;13.666;2023-06-10T09:15:33;70022.84;;;25.62;100.00
36354;BME280;22383;51.114;13.666;2023-06-10T09:18:01;70071.56;;;26.06;100.00
36354;BME280;22383;51.114;13.666;2023-06-10T09:20:30;70071.41;;;26.03;100.00
36354;BME280;22383;51.114;13.666;2023-06-10T09:22:59;70084.72;;;26.17;99.65
36354;BME280;22383;51.114;13.666;2023-06-10T09:25:37;70073.38;;;26.27;99.79
36354;BME280;22383;51.114;13.666;2023-06-10T09:28:13;70083.09;;;26.35;98.46
36354;BME280;22383;51.114;13.666;2023-06-10T09:30:41;70125.44;;;26.54;93.11
36354;BME280;22383;51.114;13.666;2023-06-10T09:33:11;70155.84;;;26.81;92.25
36354;BME280;22383;51.114;13.666;2023-06-10T09:35:48;70167.31;;;26.91;94.44
36354;BME280;22383;51.114;13.666;2023-06-10T09:38:21;70122.00;;;26.51;91.83
36354;BME280;22383;51.114;13.666;2023-06-10T09:40:53;70134.44;;;26.59;89.97
36354;BME280;22383;51.114;13.666;2023-06-10T09:43:22;70111.69;;;26.41;82.50
36354;BME280;22383;51.114;13.666;2023-06-10T09:45:50;70046.16;;;25.80;86.28
36354;BME280;22383;51.114;13.666;2023-06-10T09:48:22;70029.00;;;25.65;85.94
36354;BME280;22383;51.114;13.666;2023-06-10T09:50:52;70014.91;;;25.74;87.27
36354;BME280;22383;51.114;13.666;2023-06-10T09:53:20;70028.66;;;25.87;89.07
36354;BME280;22383;51.114;13.666;2023-06-10T09:55:48;70008.34;;;25.46;86.06
36354;BME280;22383;51.114;13.666;2023-06-10T09:58:15;69993.44;;;25.33;86.60
36354;BME280;22383;51.114;13.666;2023-06-10T10:00:52;69969.78;;;25.09;83.62
36354;BME280;22383;51.114;13.666;2023-06-10T10:03:22;69998.47;;;25.35;82.70
36354;BME280;22383;51.114;13.666;2023-06-10T10:05:58;70025.69;;;25.64;83.88
36354;BME280;22383;51.114;13.666;2023-06-10T10:08:27;70010.63;;;25.48;84.61
36354;BME280;22383;51.114;13.666;2023-06-10T10:10:58;70006.63;;;25.45;88.65
36354;BME280;22383;51.114;13.666;2023-06-10T10:13:27;70038.72;;;25.74;94.42
36354;BME280;22383;51.114;13.666;2023-06-10T10:16:00;70067.38;;;25.99;91.28
36354;BME280;22383;51.114;13.666;2023-06-10T10:18:29;70047.31;;;25.81;96.51
36354;BME280;22383;51.114;13.666;2023-06-10T10:21:04;70008.03;;;25.68;98.26
36354;BME280;22383;51.114;13.666;2023-06-10T10:23:47;70031.28;;;25.67;97.47
36354;BME280;22383;51.114;13.666;2023-06-10T10:26:21;69963.22;;;25.08;97.83
36354;BME280;22383;51.114;13.666;2023-06-10T10:31:35;70008.78;;;25.44;96.38
36354;BME280;22383;51.114;13.666;2023-06-10T10:34:07;69988.72;;;25.26;98.60
36354;BME280;22383;51.114;13.666;2023-06-10T10:36:37;69991.75;;;25.32;98.82
36354;BME280;22383;51.114;13.666;2023-06-10T10:39:06;70060.09;;;25.95;97.90
36354;BME280;22383;51.114;13.666;2023-06-10T10:41:39;70071.41;;;26.03;93.57
36354;BME280;22383;51.114;13.666;2023-06-10T10:44:07;70049.47;;;25.81;98.49
36354;BME280;22383;51.114;13.666;2023-06-10T10:46:48;69997.63;;;25.39;99.61
36354;BME280;22383;51.114;13.666;2023-06-10T10:49:17;69954.66;;;25.01;96.33
36354;BME280;22383;51.114;13.666;2023-06-10T10:51:56;69940.44;;;25.07;92.54
36354;BME280;22383;51.114;13.666;2023-06-10T10:54:35;69992.31;;;25.32;93.30
36354;BME280;22383;51.114;13.666;2023-06-10T10:57:19;70015.25;;;25.53;93.65
36354;BME280;22383;51.114;13.666;2023-06-10T10:59:58;70057.63;;;25.91;97.28
36354;BME280;22383;51.114;13.666;2023-06-10T11:03:15;70122.28;;;26.46;96.83
36354;BME280;22383;51.114;13.666;2023-06-10T11:05:45;70061.66;;;25.94;93.71
36354;BME280;22383;51.114;13.666;2023-06-10T11:11:26;70029.00;;;25.65;90.98
36354;BME280;22383;51.114;13.666;2023-06-10T11:14:06;69950.06;;;24.97;97.98
36354;BME280;22383;51.114;13.666;2023-06-10T11:16:42;70015.25;;;25.53;99.40
36354;BME280;22383;51.114;13.666;2023-06-10T11:19:10;70062.81;;;25.95;94.08
36354;BME280;22383;51.114;13.666;2023-06-10T11:21:59;70141.78;;;26.64;89.53
36354;BME280;22383;51.114;13.666;2023-06-10T11:24:31;70170.75;;;26.94;87.73
36354;BME280;22383;51.114;13.666;2023-06-10T11:27:37;70097.44;;;26.48;93.77
36354;BME280;22383;51.114;13.666;2023-06-10T11:30:20;70088.19;;;26.20;84.66
36354;BME280;22383;51.114;13.666;2023-06-10T11:32:51;70055.34;;;25.89;84.65
36354;BME280;22383;51.114;13.666;2023-06-10T11:35:23;70067.38;;;25.99;86.05
36354;BME280;22383;51.114;13.666;2023-06-10T11:37:52;70068.38;;;25.98;82.23
36354;BME280;22383;51.114;13.666;2023-06-10T11:40:22;70082.44;;;26.15;88.12
36354;BME280;22383;51.114;13.666;2023-06-10T11:42:55;70089.34;;;26.21;82.64
36354;BME280;22383;51.114;13.666;2023-06-10T11:45:22;70126.59;;;26.55;83.36
36354;BME280;22383;51.114;13.666;2023-06-10T11:47:58;70178.63;;;26.99;81.31
36354;BME280;22383;51.114;13.666;2023-06-10T11:50:33;70210.34;;;27.30;81.15
36354;BME280;22383;51.114;13.666;2023-06-10T11:53:01;70225.53;;;27.39;79.36
36354;BME280;22383;51.114;13.666;2023-06-10T11:55:47;70143.22;;;26.70;80.71
36354;BME280;22383;51.114;13.666;2023-06-10T11:58:19;70148.41;;;26.74;78.98
36354;BME280;22383;51.114;13.666;2023-06-10T12:00:54;70132.75;;;26.58;79.19
36354;BME280;22383;51.114;13.666;2023-06-10T12:03:24;70098.78;;;26.25;74.10
36354;BME280;22383;51.114;13.666;2023-06-10T12:05:59;70052.06;;;25.88;74.78
36354;BME280;22383;51.114;13.666;2023-06-10T12:08:27;70072.13;;;26.06;76.59
36354;BME280;22383;51.114;13.666;2023-06-10T12:10:56;70014.34;;;25.74;75.41
36354;BME280;22383;51.114;13.666;2023-06-10T12:13:27;70006.88;;;25.67;78.28
36354;BME280;22383;51.114;13.666;2023-06-10T12:16:23;70088.03;;;26.18;78.96
36354;BME280;22383;51.114;13.666;2023-06-10T12:19:02;70046.44;;;26.02;73.29
36354;BME280;22383;51.114;13.666;2023-06-10T12:21:36;70025.53;;;25.62;70.61
36354;BME280;22383;51.114;13.666;2023-06-10T12:24:06;70027.84;;;25.64;75.21
36354;BME280;22383;51.114;13.666;2023-06-10T12:26:53;70034.72;;;25.70;76.57
36354;BME280;22383;51.114;13.666;2023-06-10T12:29:27;70027.41;;;25.66;74.98
36354;BME280;22383;51.114;13.666;2023-06-10T12:31:57;70041.16;;;25.78;76.30
36354;BME280;22383;51.114;13.666;2023-06-10T12:37:02;70085.16;;;26.15;83.42
36354;BME280;22383;51.114;13.666;2023-06-10T12:39:33;70094.34;;;26.23;81.58
36354;BME280;22383;51.114;13.666;2023-06-10T12:42:01;70125.84;;;26.52;83.77
36354;BME280;22383;51.114;13.666;2023-06-10T12:44:31;70128.75;;;26.54;75.64
36354;BME280;22383;51.114;13.666;2023-06-10T12:47:00;70127.44;;;26.51;72.38
36354;BME280;22383;51.114;13.666;2023-06-10T12:49:28;70138.50;;;26.63;73.55
36354;BME280;22383;51.114;13.666;2023-06-10T12:51:56;70143.81;;;26.70;75.70
36354;BME280;22383;51.114;13.666;2023-06-10T12:54:27;70117.97;;;26.47;71.71
36354;BME280;22383;51.114;13.666;2023-06-10T12:57:02;70091.06;;;26.23;70.43
36354;BME280;22383;51.114;13.666;2023-06-10T13:02:09;70073.69;;;26.05;71.36
36354;BME280;22383;51.114;13.666;2023-06-10T13:04:38;70109.25;;;26.37;73.16
36354;BME280;22383;51.114;13.666;2023-06-10T13:07:06;70092.78;;;26.25;69.85
36354;BME280;22383;51.114;13.666;2023-06-10T13:09:34;70080.72;;;26.14;71.90